Time;durP1;ratioP1;P1;durP2;ratioP2;P2;SDS_P1;SDS_P2;PMS_P1;PMS_P2;Temp;Humidity;BMP_temperature;BMP_pressure;BME280_temperature;BME280_humidity;BME280_pressure;Samples;Min_cycle;Max_cycle;Signal;HPM_P1;HPM_P2
2022/04/28 00:02:12;;;;;;;8.77;2.83;;;;;;;;;;5106098;28;20119;-55
2022/04/28 00:04:38;;;;;;;5.55;2.20;;;;;;;;;;5109117;28;20023;-53
2022/04/28 00:07:04;;;;;;;7.00;2.75;;;;;;;;;;5109120;28;20157;-51
2022/04/28 00:09:30;;;;;;;6.07;2.17;;;;;;;;;;5109122;28;20541;-50
2022/04/28 00:11:56;;;;;;;6.78;2.33;;;;;;;;;;5108805;28;20153;-51
2022/04/28 00:14:22;;;;;;;7.00;2.33;;;;;;;;;;5108886;28;20559;-50
2022/04/28 00:16:48;;;;;;;9.55;2.97;;;;;;;;;;5105684;28;20052;-52
2022/04/28 00:19:14;;;;;;;5.68;2.33;;;;;;;;;;5108952;28;20081;-49
2022/04/28 00:21:41;;;;;;;6.20;2.30;;;;;;;;;;5108673;28;20036;-53
2022/04/28 00:24:07;;;;;;;7.43;2.47;;;;;;;;;;5109090;28;20023;-52
2022/04/28 00:26:33;;;;;;;6.72;2.30;;;;;;;;;;5108524;28;20098;-54
2022/04/28 00:28:59;;;;;;;8.32;2.78;;;;;;;;;;5108690;28;20101;-54
2022/04/28 00:31:26;;;;;;;7.22;2.70;;;;;;;;;;5107837;28;20125;-53
2022/04/28 00:33:52;;;;;;;7.65;3.20;;;;;;;;;;5105213;28;20055;-51
2022/04/28 00:36:19;;;;;;;6.25;2.00;;;;;;;;;;5108283;28;20394;-54
2022/04/28 00:38:45;;;;;;;4.97;2.22;;;;;;;;;;5107918;28;20046;-55
2022/04/28 00:41:11;;;;;;;7.43;2.30;;;;;;;;;;5108679;28;20031;-55
2022/04/28 00:43:50;;;;;;;7.38;2.00;;;;;;;;;;5108411;28;20537;-54
2022/04/28 00:46:16;;;;;;;6.75;2.65;;;;;;;;;;5106134;28;20374;-54
2022/04/28 00:51:27;;;;;;;5.55;2.17;;;;;;;;;;5107830;28;20065;-54
2022/04/28 00:53:54;;;;;;;5.53;2.35;;;;;;;;;;5108309;28;20061;-54
2022/04/28 00:56:20;;;;;;;6.43;2.42;;;;;;;;;;5108840;28;20031;-54
2022/04/28 00:58:49;;;;;;;6.22;2.25;;;;;;;;;;5108753;28;20056;-55
2022/04/28 01:01:16;;;;;;;5.40;2.10;;;;;;;;;;5108534;28;20112;-52
2022/04/28 01:03:42;;;;;;;6.68;2.47;;;;;;;;;;5107192;28;20373;-52
2022/04/28 01:06:08;;;;;;;5.57;2.15;;;;;;;;;;5106453;28;20138;-51
2022/04/28 01:08:34;;;;;;;5.72;2.20;;;;;;;;;;5108059;28;20027;-53
2022/04/28 01:11:01;;;;;;;6.63;2.45;;;;;;;;;;5108351;28;20188;-52
2022/04/28 01:13:28;;;;;;;5.28;1.95;;;;;;;;;;5108167;28;20111;-53
2022/04/28 01:15:54;;;;;;;7.22;1.92;;;;;;;;;;5108294;28;20038;-50
2022/04/28 01:18:21;;;;;;;5.15;2.00;;;;;;;;;;5108756;28;20019;-54
2022/04/28 01:20:47;;;;;;;8.02;2.85;;;;;;;;;;5105985;28;20486;-51
2022/04/28 01:23:13;;;;;;;4.50;2.05;;;;;;;;;;5108167;28;20516;-52
2022/04/28 01:25:39;;;;;;;6.82;2.50;;;;;;;;;;5108133;28;20426;-52
2022/04/28 01:28:05;;;;;;;6.00;2.00;;;;;;;;;;5108187;28;20062;-52
2022/04/28 01:30:33;;;;;;;6.30;2.53;;;;;;;;;;5107506;28;20036;-55
2022/04/28 01:33:00;;;;;;;4.97;2.05;;;;;;;;;;5106760;28;20085;-54
2022/04/28 01:35:26;;;;;;;5.55;2.20;;;;;;;;;;5107044;28;20034;-50
2022/04/28 01:37:52;;;;;;;5.20;2.63;;;;;;;;;;5105541;28;20021;-53
2022/04/28 01:40:20;;;;;;;6.20;2.67;;;;;;;;;;5107969;28;20024;-50
2022/04/28 01:42:47;;;;;;;3.33;1.83;;;;;;;;;;5107367;28;20080;-54
2022/04/28 01:45:14;;;;;;;7.40;2.05;;;;;;;;;;5105574;28;20401;-55
2022/04/28 01:47:41;;;;;;;4.45;2.00;;;;;;;;;;5109043;28;20720;-54
2022/04/28 01:50:10;;;;;;;5.00;2.38;;;;;;;;;;5110908;28;20115;-55
2022/04/28 01:55:21;;;;;;;5.78;2.25;;;;;;;;;;5110425;28;20046;-52
2022/04/28 01:57:47;;;;;;;5.28;2.10;;;;;;;;;;5111380;28;20051;-53
2022/04/28 02:00:14;;;;;;;4.68;2.08;;;;;;;;;;5111430;28;20103;-51
2022/04/28 02:02:40;;;;;;;6.00;2.60;;;;;;;;;;5111046;28;20122;-52
2022/04/28 02:05:07;;;;;;;5.43;2.08;;;;;;;;;;5111458;28;20023;-54
2022/04/28 02:07:34;;;;;;;7.53;2.53;;;;;;;;;;5109173;28;20027;-55
2022/04/28 02:10:00;;;;;;;6.75;2.38;;;;;;;;;;5111633;28;20137;-56
2022/04/28 02:12:27;;;;;;;5.78;1.90;;;;;;;;;;5111067;28;20121;-51
2022/04/28 02:14:53;;;;;;;5.88;2.25;;;;;;;;;;5108960;28;20393;-53
2022/04/28 02:17:20;;;;;;;6.63;2.40;;;;;;;;;;5107141;28;20115;-52
2022/04/28 02:19:46;;;;;;;7.28;2.60;;;;;;;;;;5111272;28;20106;-50
2022/04/28 02:22:12;;;;;;;5.20;2.33;;;;;;;;;;5111520;28;20115;-48
2022/04/28 02:24:39;;;;;;;7.93;2.58;;;;;;;;;;5111683;28;20030;-47
2022/04/28 02:27:06;;;;;;;4.85;2.55;;;;;;;;;;5111170;28;20035;-50
2022/04/28 02:29:33;;;;;;;7.38;2.35;;;;;;;;;;5111191;28;20024;-48
2022/04/28 02:31:59;;;;;;;6.05;2.25;;;;;;;;;;5108967;28;20122;-49
2022/04/28 02:34:27;;;;;;;6.00;2.08;;;;;;;;;;5110968;28;20031;-53
2022/04/28 02:36:53;;;;;;;4.35;2.10;;;;;;;;;;5108121;28;20040;-50
2022/04/28 02:39:20;;;;;;;7.57;2.65;;;;;;;;;;5111450;28;20026;-52
2022/04/28 02:41:46;;;;;;;4.80;2.60;;;;;;;;;;5110526;28;20112;-54
2022/04/28 02:44:12;;;;;;;7.93;2.30;;;;;;;;;;5110782;28;20023;-51
2022/04/28 02:46:40;;;;;;;6.60;2.45;;;;;;;;;;5109539;28;20043;-55
2022/04/28 02:49:06;;;;;;;4.63;2.42;;;;;;;;;;5110778;28;20023;-53
2022/04/28 02:51:32;;;;;;;7.05;2.40;;;;;;;;;;5110056;28;20027;-52
2022/04/28 02:53:58;;;;;;;8.18;2.60;;;;;;;;;;5107555;28;20031;-55
2022/04/28 02:56:25;;;;;;;7.22;2.70;;;;;;;;;;5110809;28;20039;-51
2022/04/28 02:58:51;;;;;;;6.65;2.63;;;;;;;;;;5110095;28;20039;-52
2022/04/28 03:01:17;;;;;;;6.53;2.28;;;;;;;;;;5111163;28;20110;-50
2022/04/28 03:03:43;;;;;;;8.88;2.65;;;;;;;;;;5110592;28;20085;-51
2022/04/28 03:11:41;;;;;;;7.40;2.28;;;;;;;;;;5110728;28;20054;-51
2022/04/28 03:14:07;;;;;;;6.65;2.42;;;;;;;;;;5109948;28;20024;-54
2022/04/28 03:16:33;;;;;;;5.53;2.30;;;;;;;;;;5109321;28;20126;-51
2022/04/28 03:19:00;;;;;;;7.18;3.15;;;;;;;;;;5109901;28;20414;-53
2022/04/28 03:21:26;;;;;;;7.22;2.60;;;;;;;;;;5110135;28;20028;-52
2022/04/28 03:23:52;;;;;;;4.47;1.90;;;;;;;;;;5109475;28;20092;-51
2022/04/28 03:26:18;;;;;;;7.25;2.38;;;;;;;;;;5110562;28;20157;-54
2022/04/28 03:28:44;;;;;;;5.93;2.53;;;;;;;;;;5109642;28;20058;-55
2022/04/28 03:31:10;;;;;;;6.47;2.42;;;;;;;;;;5107653;28;20050;-52
2022/04/28 03:33:36;;;;;;;4.47;2.08;;;;;;;;;;5109980;28;20093;-52
2022/04/28 03:36:02;;;;;;;5.25;2.22;;;;;;;;;;5110271;28;20114;-54
2022/04/28 03:38:28;;;;;;;6.47;2.65;;;;;;;;;;5109829;28;20579;-55
2022/04/28 03:40:54;;;;;;;7.35;2.78;;;;;;;;;;5108866;28;20053;-55
2022/04/28 03:43:20;;;;;;;7.55;2.33;;;;;;;;;;5109749;28;20027;-53
2022/04/28 03:45:46;;;;;;;4.25;1.90;;;;;;;;;;5089812;28;20032;-56
2022/04/28 03:48:12;;;;;;;6.18;2.25;;;;;;;;;;5089333;28;20063;-53
2022/04/28 03:50:39;;;;;;;6.50;2.10;;;;;;;;;;5108954;28;20485;-54
2022/04/28 03:53:05;;;;;;;7.28;2.60;;;;;;;;;;5110141;28;20024;-55
2022/04/28 03:55:31;;;;;;;6.80;1.88;;;;;;;;;;5109444;28;20058;-50
2022/04/28 03:57:58;;;;;;;6.95;2.75;;;;;;;;;;5110212;28;20031;-54
2022/04/28 04:00:25;;;;;;;3.58;1.85;;;;;;;;;;5105976;28;20020;-54
2022/04/28 04:02:51;;;;;;;5.57;2.40;;;;;;;;;;5107800;28;20066;-52
2022/04/28 04:05:18;;;;;;;5.30;2.00;;;;;;;;;;5109021;28;20477;-51
2022/04/28 04:07:44;;;;;;;5.38;2.17;;;;;;;;;;5109748;28;20118;-52
2022/04/28 04:10:11;;;;;;;7.85;2.65;;;;;;;;;;5108563;28;20015;-53
2022/04/28 04:12:37;;;;;;;4.25;1.60;;;;;;;;;;5109313;28;20093;-51
2022/04/28 04:15:05;;;;;;;5.13;2.10;;;;;;;;;;5108285;28;20036;-53
2022/04/28 04:17:32;;;;;;;8.73;2.70;;;;;;;;;;5090042;27;20126;-51
2022/04/28 04:19:58;;;;;;;8.18;2.10;;;;;;;;;;5094186;28;20522;-53
2022/04/28 04:22:24;;;;;;;5.78;1.95;;;;;;;;;;5108180;28;20701;-56
2022/04/28 04:24:50;;;;;;;6.30;2.15;;;;;;;;;;5091316;28;20035;-54
2022/04/28 04:27:16;;;;;;;4.38;1.88;;;;;;;;;;5109396;28;20493;-52
2022/04/28 04:29:43;;;;;;;7.97;1.95;;;;;;;;;;5108837;28;20134;-53
2022/04/28 04:32:18;;;;;;;5.43;1.90;;;;;;;;;;5108606;28;20070;-54
2022/04/28 04:34:50;;;;;;;8.73;2.17;;;;;;;;;;5107469;28;20085;-53
2022/04/28 04:37:16;;;;;;;6.10;2.78;;;;;;;;;;5107864;28;20098;-52
2022/04/28 04:39:42;;;;;;;4.18;1.90;;;;;;;;;;5109275;28;20103;-52
2022/04/28 04:42:08;;;;;;;5.00;1.88;;;;;;;;;;5108269;28;20481;-54
2022/04/28 04:44:34;;;;;;;7.85;2.30;;;;;;;;;;5108876;28;20062;-49
2022/04/28 04:47:00;;;;;;;6.05;2.35;;;;;;;;;;5106637;28;20625;-52
2022/04/28 04:49:27;;;;;;;8.20;2.47;;;;;;;;;;5108703;28;20028;-50
2022/04/28 04:51:53;;;;;;;39.78;5.45;;;;;;;;;;5108152;28;20015;-48
2022/04/28 04:54:22;;;;;;;41.58;6.68;;;;;;;;;;5108658;28;20462;-53
2022/04/28 04:56:48;;;;;;;41.83;8.02;;;;;;;;;;5109059;28;20122;-48
2022/04/28 04:59:14;;;;;;;27.65;6.22;;;;;;;;;;5108923;28;20107;-49
2022/04/28 05:01:40;;;;;;;25.08;4.93;;;;;;;;;;5108124;28;20034;-51
2022/04/28 05:04:06;;;;;;;31.65;5.78;;;;;;;;;;5108426;28;20028;-48
2022/04/28 05:06:33;;;;;;;23.65;5.63;;;;;;;;;;5108850;28;20076;-50
2022/04/28 05:08:59;;;;;;;20.10;5.75;;;;;;;;;;5097410;28;20076;-52
2022/04/28 05:11:25;;;;;;;14.85;4.57;;;;;;;;;;5108237;28;21436;-53
2022/04/28 05:13:51;;;;;;;12.27;5.30;;;;;;;;;;5107400;28;20023;-51
2022/04/28 05:16:17;;;;;;;20.60;5.65;;;;;;;;;;5106498;28;20032;-51
2022/04/28 05:18:43;;;;;;;16.20;5.35;;;;;;;;;;5107585;28;20028;-52
2022/04/28 05:21:09;;;;;;;13.98;5.53;;;;;;;;;;5107791;28;20043;-55
2022/04/28 05:23:35;;;;;;;13.77;5.35;;;;;;;;;;5108096;28;20027;-50
2022/04/28 05:26:01;;;;;;;17.60;4.90;;;;;;;;;;5108790;28;20504;-52
2022/04/28 05:28:30;;;;;;;17.50;6.65;;;;;;;;;;5108127;28;20042;-52
2022/04/28 05:30:56;;;;;;;13.63;5.57;;;;;;;;;;5107427;28;20131;-50
2022/04/28 05:33:23;;;;;;;15.68;4.53;;;;;;;;;;5107891;28;20485;-52
2022/04/28 05:35:49;;;;;;;10.48;4.53;;;;;;;;;;5108732;28;20076;-51
2022/04/28 05:38:15;;;;;;;14.15;4.63;;;;;;;;;;5108408;28;20034;-52
2022/04/28 05:40:42;;;;;;;10.40;4.97;;;;;;;;;;5108293;28;20099;-52
2022/04/28 05:45:54;;;;;;;9.85;4.03;;;;;;;;;;5098945;28;20124;-55
2022/04/28 05:48:20;;;;;;;11.90;4.53;;;;;;;;;;5100158;28;20110;-54
2022/04/28 05:50:47;;;;;;;14.98;4.18;;;;;;;;;;5107586;28;20435;-54
2022/04/28 05:53:13;;;;;;;16.35;4.45;;;;;;;;;;5106709;28;20024;-53
2022/04/28 05:55:39;;;;;;;22.20;4.80;;;;;;;;;;5108203;28;20061;-53
2022/04/28 05:58:06;;;;;;;18.38;4.40;;;;;;;;;;5094216;28;20458;-54
2022/04/28 06:00:32;;;;;;;25.90;4.88;;;;;;;;;;5107394;28;20062;-54
2022/04/28 06:02:59;;;;;;;26.27;5.85;;;;;;;;;;5107119;28;20156;-55
2022/04/28 06:05:25;;;;;;;18.27;4.90;;;;;;;;;;5106685;28;20511;-54
2022/04/28 06:07:51;;;;;;;24.25;4.90;;;;;;;;;;5107117;28;20110;-53
2022/04/28 06:10:17;;;;;;;19.17;4.57;;;;;;;;;;5107241;28;20130;-53
2022/04/28 06:12:43;;;;;;;23.38;4.28;;;;;;;;;;5107745;28;20142;-53
2022/04/28 06:15:10;;;;;;;27.25;4.45;;;;;;;;;;5107352;28;20077;-54
2022/04/28 06:17:36;;;;;;;20.67;4.22;;;;;;;;;;5107548;28;20593;-51
2022/04/28 06:20:02;;;;;;;28.08;4.53;;;;;;;;;;5107593;28;20024;-54
2022/04/28 06:22:28;;;;;;;22.38;4.30;;;;;;;;;;5107541;28;20826;-53
2022/04/28 06:24:54;;;;;;;46.97;6.78;;;;;;;;;;5107574;28;20020;-53
2022/04/28 06:27:21;;;;;;;27.15;4.47;;;;;;;;;;5107598;28;20567;-51
2022/04/28 06:29:49;;;;;;;23.95;5.20;;;;;;;;;;5107799;28;20130;-53
2022/04/28 06:32:18;;;;;;;17.27;4.93;;;;;;;;;;5107627;28;20506;-53
2022/04/28 06:34:44;;;;;;;28.50;3.95;;;;;;;;;;5110508;28;20051;-51
2022/04/28 06:37:10;;;;;;;18.70;4.03;;;;;;;;;;5111567;28;20039;-53
2022/04/28 06:39:37;;;;;;;19.73;4.28;;;;;;;;;;5111558;28;20137;-53
2022/04/28 06:42:04;;;;;;;21.23;3.85;;;;;;;;;;5110059;28;20023;-50
2022/04/28 06:44:30;;;;;;;24.00;4.25;;;;;;;;;;5109505;28;20033;-51
2022/04/28 06:46:56;;;;;;;22.65;4.28;;;;;;;;;;5110458;28;20156;-51
2022/04/28 06:49:22;;;;;;;25.23;3.70;;;;;;;;;;5110298;28;20667;-50
2022/04/28 06:51:48;;;;;;;20.50;3.88;;;;;;;;;;5110364;28;20591;-51
2022/04/28 06:54:14;;;;;;;20.02;4.25;;;;;;;;;;5109236;28;20557;-50
2022/04/28 06:56:40;;;;;;;22.70;3.88;;;;;;;;;;5109388;28;20111;-53
2022/04/28 06:59:06;;;;;;;18.60;3.10;;;;;;;;;;5110276;28;20035;-49
2022/04/28 07:01:33;;;;;;;18.52;3.40;;;;;;;;;;5109561;28;20030;-49
2022/04/28 07:03:59;;;;;;;19.80;3.45;;;;;;;;;;5109779;28;20023;-53
2022/04/28 07:06:25;;;;;;;18.60;3.55;;;;;;;;;;5110483;28;20080;-50
2022/04/28 07:08:51;;;;;;;21.55;3.30;;;;;;;;;;5110546;28;20023;-51
2022/04/28 07:11:17;;;;;;;15.05;3.30;;;;;;;;;;5108215;28;20028;-53
2022/04/28 07:13:43;;;;;;;20.65;4.10;;;;;;;;;;5110401;28;20122;-50
2022/04/28 07:16:09;;;;;;;12.40;2.88;;;;;;;;;;5110349;28;20845;-52
2022/04/28 07:18:35;;;;;;;28.48;4.22;;;;;;;;;;5109920;28;20031;-50
2022/04/28 07:21:03;;;;;;;13.35;3.13;;;;;;;;;;5110472;28;20066;-50
2022/04/28 07:23:29;;;;;;;15.35;3.10;;;;;;;;;;5099079;28;20808;-49
2022/04/28 07:25:55;;;;;;;22.63;3.25;;;;;;;;;;5110196;27;20059;-53
2022/04/28 07:28:21;;;;;;;21.88;3.00;;;;;;;;;;5109956;28;20114;-50
2022/04/28 07:30:47;;;;;;;23.95;4.63;;;;;;;;;;5110145;27;20134;-50
2022/04/28 07:33:13;;;;;;;18.35;3.53;;;;;;;;;;5107368;28;20020;-53
2022/04/28 07:35:40;;;;;;;24.08;3.67;;;;;;;;;;5109513;28;20027;-54
2022/04/28 07:38:06;;;;;;;19.35;3.70;;;;;;;;;;5108097;28;20036;-49
2022/04/28 07:40:32;;;;;;;19.10;3.67;;;;;;;;;;5110045;28;20039;-48
2022/04/28 07:42:59;;;;;;;19.58;3.22;;;;;;;;;;5110055;28;20032;-50
2022/04/28 07:45:25;;;;;;;15.80;3.53;;;;;;;;;;5109306;28;20023;-52
2022/04/28 07:47:51;;;;;;;21.85;3.30;;;;;;;;;;5103984;28;20032;-54
2022/04/28 07:50:17;;;;;;;18.85;3.80;;;;;;;;;;5109787;28;20027;-51
2022/04/28 07:52:44;;;;;;;20.33;4.03;;;;;;;;;;5101376;28;20032;-52
2022/04/28 07:55:11;;;;;;;19.80;4.00;;;;;;;;;;5110027;28;20414;-50
2022/04/28 07:57:37;;;;;;;24.08;3.83;;;;;;;;;;5109500;28;20036;-51
2022/04/28 08:00:04;;;;;;;17.67;3.25;;;;;;;;;;5108916;28;20020;-51
2022/04/28 08:02:32;;;;;;;15.35;3.20;;;;;;;;;;5108194;28;20652;-52
2022/04/28 08:04:58;;;;;;;31.77;3.55;;;;;;;;;;5108614;28;20024;-53
2022/04/28 08:07:24;;;;;;;17.67;2.95;;;;;;;;;;5109200;28;20465;-48
2022/04/28 08:09:50;;;;;;;17.88;2.80;;;;;;;;;;5109059;28;20031;-51
2022/04/28 08:12:17;;;;;;;12.35;2.50;;;;;;;;;;5108197;28;20038;-49
2022/04/28 08:14:43;;;;;;;12.15;3.50;;;;;;;;;;5107426;28;20118;-53
2022/04/28 08:17:09;;;;;;;12.25;2.63;;;;;;;;;;5107515;28;20036;-53
2022/04/28 08:19:35;;;;;;;16.73;3.15;;;;;;;;;;5107595;28;20033;-54
2022/04/28 08:22:01;;;;;;;15.15;2.47;;;;;;;;;;5107698;28;20032;-50
2022/04/28 08:24:27;;;;;;;13.25;2.67;;;;;;;;;;5107671;28;20027;-53
2022/04/28 08:26:54;;;;;;;12.15;2.75;;;;;;;;;;5108064;28;20031;-53
2022/04/28 08:29:22;;;;;;;14.55;2.80;;;;;;;;;;5109078;28;20024;-50
2022/04/28 08:31:49;;;;;;;10.57;2.58;;;;;;;;;;5109079;28;20050;-53
2022/04/28 08:34:17;;;;;;;11.00;2.58;;;;;;;;;;5108642;28;20020;-51
2022/04/28 08:36:43;;;;;;;14.07;2.33;;;;;;;;;;5108916;28;20044;-52
2022/04/28 08:39:09;;;;;;;13.65;2.60;;;;;;;;;;5109311;28;20432;-52
2022/04/28 08:41:37;;;;;;;10.70;2.60;;;;;;;;;;5109006;28;20024;-53
2022/04/28 08:44:04;;;;;;;11.10;2.88;;;;;;;;;;5109246;28;20031;-54
2022/04/28 08:49:15;;;;;;;12.07;2.85;;;;;;;;;;5108950;28;20042;-53
2022/04/28 08:51:43;;;;;;;6.40;2.72;;;;;;;;;;5109409;28;20027;-54
2022/04/28 08:54:10;;;;;;;9.65;2.47;;;;;;;;;;5108975;28;20027;-54
2022/04/28 08:56:36;;;;;;;9.25;2.47;;;;;;;;;;5109056;28;20036;-51
2022/04/28 08:59:02;;;;;;;8.15;2.65;;;;;;;;;;5108993;28;20064;-52
2022/04/28 09:01:28;;;;;;;7.10;1.83;;;;;;;;;;5108988;28;20111;-51
2022/04/28 09:03:58;;;;;;;13.50;2.60;;;;;;;;;;5109164;28;20588;-54
2022/04/28 09:06:28;;;;;;;8.73;2.38;;;;;;;;;;5108522;28;20111;-53
2022/04/28 09:08:55;;;;;;;10.32;2.10;;;;;;;;;;5108984;28;20118;-54
2022/04/28 09:11:23;;;;;;;14.93;2.83;;;;;;;;;;5109059;28;20118;-50
2022/04/28 09:14:11;;;;;;;11.70;2.10;;;;;;;;;;5108985;28;20027;-51
2022/04/28 09:16:46;;;;;;;14.77;3.15;;;;;;;;;;5108548;28;20038;-53
2022/04/28 09:19:22;;;;;;;9.93;3.03;;;;;;;;;;5108823;28;20043;-53
2022/04/28 09:21:50;;;;;;;8.88;2.38;;;;;;;;;;5108840;28;20473;-52
2022/04/28 09:24:16;;;;;;;9.25;2.40;;;;;;;;;;5108364;28;20031;-52
2022/04/28 09:26:42;;;;;;;9.38;2.47;;;;;;;;;;5108512;28;20024;-54
2022/04/28 09:29:12;;;;;;;8.90;2.00;;;;;;;;;;5108843;28;20097;-53
2022/04/28 09:31:39;;;;;;;8.30;2.25;;;;;;;;;;5108542;28;20040;-51
2022/04/28 09:34:15;;;;;;;6.53;2.30;;;;;;;;;;5108561;28;20100;-52
2022/04/28 09:36:43;;;;;;;7.05;1.95;;;;;;;;;;5108221;28;20134;-50
2022/04/28 09:39:12;;;;;;;5.57;2.00;;;;;;;;;;5108324;28;20052;-50
2022/04/28 09:44:23;;;;;;;7.03;2.17;;;;;;;;;;5108647;28;20031;-53
2022/04/28 09:46:50;;;;;;;7.38;2.60;;;;;;;;;;5108148;28;20115;-49
2022/04/28 09:49:17;;;;;;;9.75;2.30;;;;;;;;;;5108189;28;20111;-49
2022/04/28 09:51:44;;;;;;;7.20;2.20;;;;;;;;;;5108078;28;20028;-50
2022/04/28 09:54:11;;;;;;;9.05;2.30;;;;;;;;;;5108064;28;20032;-54
2022/04/28 09:56:38;;;;;;;7.15;2.33;;;;;;;;;;5107292;28;20081;-51
2022/04/28 09:59:06;;;;;;;10.75;2.30;;;;;;;;;;5107847;28;20444;-50
2022/04/28 10:01:35;;;;;;;8.18;2.20;;;;;;;;;;5107895;28;20028;-51
2022/04/28 10:04:01;;;;;;;9.73;2.55;;;;;;;;;;5107678;28;20020;-51
2022/04/28 10:06:33;;;;;;;6.32;1.80;;;;;;;;;;5108274;28;20157;-50
2022/04/28 10:09:00;;;;;;;7.80;2.67;;;;;;;;;;5093521;28;20042;-49
2022/04/28 10:11:27;;;;;;;5.88;1.80;;;;;;;;;;5094422;28;20597;-53
2022/04/28 10:13:54;;;;;;;8.30;3.67;;;;;;;;;;5110158;28;20441;-52
2022/04/28 10:16:21;;;;;;;18.75;3.58;;;;;;;;;;5111086;28;20633;-46
2022/04/28 10:19:08;;;;;;;7.65;3.00;;;;;;;;;;5111570;28;20027;-47
2022/04/28 10:21:40;;;;;;;9.32;2.65;;;;;;;;;;5100944;28;20062;-52
2022/04/28 10:32:45;;;;;;;9.75;2.70;;;;;;;;;;5111562;28;20467;-53
2022/04/28 10:35:13;;;;;;;8.52;2.75;;;;;;;;;;5111625;28;20142;-55
2022/04/28 10:37:45;;;;;;;8.88;2.67;;;;;;;;;;5108685;27;20047;-59
2022/04/28 10:40:16;;;;;;;10.70;2.42;;;;;;;;;;5110799;28;20114;-58
2022/04/28 10:42:42;;;;;;;9.48;2.30;;;;;;;;;;5105757;28;20450;-58
2022/04/28 10:45:25;;;;;;;7.53;2.42;;;;;;;;;;5102079;28;20487;-53
2022/04/28 10:48:17;;;;;;;10.57;2.75;;;;;;;;;;5111284;28;20043;-55
2022/04/28 10:50:58;;;;;;;4.63;1.88;;;;;;;;;;5102255;28;20680;-54
2022/04/28 10:53:24;;;;;;;5.75;1.98;;;;;;;;;;5110765;28;20027;-54
2022/04/28 10:55:50;;;;;;;8.65;2.40;;;;;;;;;;5111183;28;20427;-54
2022/04/28 10:58:19;;;;;;;9.48;2.40;;;;;;;;;;5102342;27;20028;-54
2022/04/28 11:00:52;;;;;;;11.68;4.13;;;;;;;;;;5096317;27;20036;-55
2022/04/28 11:03:37;;;;;;;12.63;4.43;;;;;;;;;;5093577;28;20016;-54
2022/04/28 11:06:13;;;;;;;12.10;4.80;;;;;;;;;;5104415;28;20104;-53
2022/04/28 11:08:44;;;;;;;11.02;4.57;;;;;;;;;;5109962;28;20039;-52
2022/04/28 11:11:12;;;;;;;14.02;5.28;;;;;;;;;;5110477;28;20019;-52
2022/04/28 11:13:40;;;;;;;12.20;4.55;;;;;;;;;;5109681;28;20095;-52
2022/04/28 11:16:08;;;;;;;10.75;4.78;;;;;;;;;;5109047;28;20031;-52
2022/04/28 11:18:34;;;;;;;11.75;4.65;;;;;;;;;;5108433;28;20036;-50
2022/04/28 11:21:01;;;;;;;11.13;4.57;;;;;;;;;;5108485;27;20019;-54
2022/04/28 11:23:33;;;;;;;12.88;4.72;;;;;;;;;;5097525;27;20119;-50
2022/04/28 11:25:59;;;;;;;15.00;5.07;;;;;;;;;;5099161;27;20024;-52
2022/04/28 11:28:26;;;;;;;14.55;4.60;;;;;;;;;;5102555;28;20082;-51
2022/04/28 11:30:52;;;;;;;15.77;4.28;;;;;;;;;;5107816;28;20442;-53
2022/04/28 11:33:21;;;;;;;13.93;4.35;;;;;;;;;;5110228;28;20115;-52
2022/04/28 11:35:47;;;;;;;13.15;4.28;;;;;;;;;;5103334;28;20060;-51
2022/04/28 11:38:13;;;;;;;13.07;4.32;;;;;;;;;;5109712;28;20038;-51
2022/04/28 11:40:42;;;;;;;10.43;4.68;;;;;;;;;;5110422;28;20031;-51
2022/04/28 11:43:09;;;;;;;11.88;5.35;;;;;;;;;;5110233;27;20030;-54
2022/04/28 11:45:37;;;;;;;10.20;4.43;;;;;;;;;;5109170;28;20034;-52
2022/04/28 11:48:04;;;;;;;13.52;5.07;;;;;;;;;;5109974;28;20043;-52
2022/04/28 11:50:35;;;;;;;11.35;5.40;;;;;;;;;;5098901;28;20544;-52
2022/04/28 11:53:03;;;;;;;15.85;5.32;;;;;;;;;;5100451;27;20032;-51
2022/04/28 11:55:31;;;;;;;12.60;4.53;;;;;;;;;;5100006;28;20118;-50
2022/04/28 11:57:57;;;;;;;12.27;5.43;;;;;;;;;;5107152;28;20023;-53
2022/04/28 12:00:26;;;;;;;13.20;5.20;;;;;;;;;;5107710;28;20679;-49
2022/04/28 12:02:53;;;;;;;7.95;4.78;;;;;;;;;;5099478;28;20110;-52
2022/04/28 12:05:25;;;;;;;9.45;4.63;;;;;;;;;;5096956;28;20053;-51
2022/04/28 12:07:52;;;;;;;11.77;4.82;;;;;;;;;;5109835;28;20023;-50
2022/04/28 12:15:58;;;;;;;8.95;4.50;;;;;;;;;;5109134;28;20035;-51
2022/04/28 12:21:14;;;;;;;11.63;4.53;;;;;;;;;;5097223;28;20030;-51
2022/04/28 12:23:41;;;;;;;16.35;5.22;;;;;;;;;;5103892;27;20031;-51
2022/04/28 12:26:08;;;;;;;9.13;4.30;;;;;;;;;;5093340;28;20012;-51
2022/04/28 12:28:35;;;;;;;11.52;4.97;;;;;;;;;;5108985;28;20115;-49
2022/04/28 12:31:02;;;;;;;9.88;5.03;;;;;;;;;;5108666;28;20055;-52
2022/04/28 12:33:29;;;;;;;13.20;4.50;;;;;;;;;;5109418;28;20028;-52
2022/04/28 12:35:59;;;;;;;14.57;5.47;;;;;;;;;;5108910;28;20108;-54
2022/04/28 12:38:26;;;;;;;14.02;4.53;;;;;;;;;;5109197;28;20024;-53
2022/04/28 12:40:53;;;;;;;12.25;4.70;;;;;;;;;;5109133;28;20027;-50
2022/04/28 12:43:37;;;;;;;14.70;5.57;;;;;;;;;;5108236;28;20036;-52
2022/04/28 12:46:05;;;;;;;11.68;4.97;;;;;;;;;;5088719;28;20111;-53
2022/04/28 12:48:32;;;;;;;10.15;4.32;;;;;;;;;;5107054;28;20434;-53
2022/04/28 12:51:14;;;;;;;9.55;4.70;;;;;;;;;;5088554;27;20115;-52
2022/04/28 12:53:41;;;;;;;9.75;4.85;;;;;;;;;;5106896;28;20790;-52
2022/04/28 12:56:12;;;;;;;12.10;4.63;;;;;;;;;;5105099;28;20474;-51
2022/04/28 12:58:38;;;;;;;;;;;;;;;;;;5108993;28;20050;-52
2022/04/28 13:01:04;;;;;;;12.20;5.25;;;;;;;;;;5088616;28;20324;-52
2022/04/28 13:03:30;;;;;;;9.55;4.57;;;;;;;;;;5108963;28;20083;-53
2022/04/28 13:05:56;;;;;;;14.35;5.45;;;;;;;;;;5098532;28;20497;-53
2022/04/28 13:08:22;;;;;;;10.80;5.50;;;;;;;;;;5104743;28;20050;-52
2022/04/28 13:10:50;;;;;;;19.52;5.70;;;;;;;;;;5103678;28;20022;-50
2022/04/28 13:13:16;;;;;;;15.02;4.93;;;;;;;;;;5108165;28;20019;-53
2022/04/28 13:15:42;;;;;;;11.15;4.70;;;;;;;;;;5108767;28;20027;-53
2022/04/28 13:18:08;;;;;;;11.05;4.50;;;;;;;;;;5102064;28;20035;-56
2022/04/28 13:20:34;;;;;;;14.25;5.05;;;;;;;;;;5100125;28;20072;-57
2022/04/28 13:23:01;;;;;;;10.63;5.15;;;;;;;;;;5100350;28;20446;-54
2022/04/28 13:25:27;;;;;;;13.18;5.65;;;;;;;;;;5099196;28;20420;-52
2022/04/28 13:27:53;;;;;;;12.15;4.47;;;;;;;;;;5107602;28;20076;-53
2022/04/28 13:30:19;;;;;;;13.73;4.53;;;;;;;;;;5106804;28;20110;-54
2022/04/28 13:32:45;;;;;;;10.77;4.43;;;;;;;;;;5106781;28;20480;-53
2022/04/28 13:35:11;;;;;;;7.97;4.20;;;;;;;;;;5106559;28;20035;-53
2022/04/28 13:37:37;;;;;;;8.80;4.05;;;;;;;;;;5106447;28;20158;-53
2022/04/28 13:40:04;;;;;;;11.38;3.78;;;;;;;;;;5107289;28;20707;-52
2022/04/28 13:42:30;;;;;;;10.13;3.30;;;;;;;;;;5106907;28;20015;-54
2022/04/28 13:44:56;;;;;;;10.32;3.28;;;;;;;;;;5110654;28;20161;-51
2022/04/28 13:47:22;;;;;;;10.32;3.42;;;;;;;;;;5101177;28;20036;-51
2022/04/28 13:49:48;;;;;;;11.63;3.85;;;;;;;;;;5104497;28;20032;-53
2022/04/28 13:52:16;;;;;;;14.23;5.07;;;;;;;;;;5110920;28;20533;-53
2022/04/28 13:54:42;;;;;;;10.18;5.35;;;;;;;;;;5111706;28;20375;-53
2022/04/28 13:57:08;;;;;;;15.27;4.47;;;;;;;;;;5107608;28;20034;-50
2022/04/28 13:59:34;;;;;;;11.25;4.88;;;;;;;;;;5099153;28;20031;-50
2022/04/28 14:02:01;;;;;;;14.85;4.97;;;;;;;;;;5107791;27;20826;-52
2022/04/28 14:04:27;;;;;;;10.70;5.20;;;;;;;;;;5110611;28;20079;-51
2022/04/28 14:06:53;;;;;;;10.90;5.85;;;;;;;;;;5111343;28;20059;-53
2022/04/28 14:09:19;;;;;;;13.77;4.68;;;;;;;;;;5111267;28;20047;-53
2022/04/28 14:11:46;;;;;;;12.63;5.28;;;;;;;;;;5111500;28;20568;-53
2022/04/28 14:14:12;;;;;;;12.68;5.03;;;;;;;;;;5111700;28;20149;-51
2022/04/28 14:16:38;;;;;;;10.88;5.53;;;;;;;;;;5107826;28;20039;-49
2022/04/28 14:19:05;;;;;;;12.55;6.13;;;;;;;;;;5096900;28;20025;-53
2022/04/28 14:21:33;;;;;;;10.25;5.30;;;;;;;;;;5108968;28;20035;-53
2022/04/28 14:23:59;;;;;;;11.15;5.57;;;;;;;;;;5111448;28;20036;-52
2022/04/28 14:26:25;;;;;;;8.95;4.93;;;;;;;;;;5111503;28;20123;-52
2022/04/28 14:28:51;;;;;;;11.05;5.43;;;;;;;;;;5111724;28;20165;-52
2022/04/28 14:31:17;;;;;;;15.57;5.18;;;;;;;;;;5110489;28;20073;-50
2022/04/28 14:33:43;;;;;;;10.40;5.18;;;;;;;;;;5111128;28;20135;-48
2022/04/28 14:36:09;;;;;;;9.90;5.57;;;;;;;;;;5110876;28;20606;-52
2022/04/28 14:38:36;;;;;;;9.85;5.18;;;;;;;;;;5108840;28;20377;-50
2022/04/28 14:41:03;;;;;;;12.77;5.70;;;;;;;;;;5107324;28;20497;-53
2022/04/28 14:43:29;;;;;;;27.98;5.82;;;;;;;;;;5094479;27;20654;-50
2022/04/28 14:45:55;;;;;;;10.75;5.93;;;;;;;;;;5096301;28;20115;-54
2022/04/28 14:48:21;;;;;;;13.48;6.05;;;;;;;;;;5111049;28;20035;-50
2022/04/28 14:53:34;;;;;;;11.43;5.82;;;;;;;;;;5098572;28;20039;-55
2022/04/28 14:55:59;;;;;;;9.23;5.13;;;;;;;;;;5110696;27;20031;-53
2022/04/28 14:58:26;;;;;;;10.23;4.93;;;;;;;;;;5109877;28;20089;-50
2022/04/28 15:00:52;;;;;;;11.55;4.80;;;;;;;;;;5110195;28;20038;-56
2022/04/28 15:03:18;;;;;;;12.50;5.53;;;;;;;;;;5109397;28;20461;-54
2022/04/28 15:05:45;;;;;;;13.43;5.00;;;;;;;;;;5109821;28;20058;-52
2022/04/28 15:08:11;;;;;;;9.60;5.53;;;;;;;;;;5109310;28;20046;-53
2022/04/28 15:10:37;;;;;;;9.75;5.03;;;;;;;;;;5109429;28;20023;-54
2022/04/28 15:13:03;;;;;;;10.50;4.45;;;;;;;;;;5109398;28;20466;-55
2022/04/28 15:15:29;;;;;;;14.35;5.70;;;;;;;;;;5109439;28;20054;-56